createdAt,value
2024-01-30T00:01:18.625Z,101051.81
2024-01-30T00:03:45.736Z,101072.41
2024-01-30T00:06:13.398Z,101063.75
2024-01-30T00:08:40.508Z,101074.97
2024-01-30T00:11:08.927Z,101062.94
2024-01-30T00:13:35.969Z,101062.31
2024-01-30T00:16:03.050Z,101069.69
2024-01-30T00:18:30.114Z,101071.31
2024-01-30T00:20:57.234Z,101053.31
2024-01-30T00:23:24.320Z,101061.78
2024-01-30T00:25:51.636Z,101057.44
2024-01-30T00:28:18.699Z,101058.25
2024-01-30T00:30:45.868Z,101052.22
2024-01-30T00:33:13.075Z,101059.91
2024-01-30T00:35:40.220Z,101050.50
2024-01-30T00:38:09.761Z,101039.38
2024-01-30T00:40:36.764Z,101049.69
2024-01-30T00:43:03.857Z,101041.94
2024-01-30T00:45:30.942Z,101042.75
2024-01-30T00:47:58.259Z,101042.88
2024-01-30T00:50:25.371Z,101044.63
2024-01-30T00:52:52.525Z,101049.69
2024-01-30T00:55:19.793Z,101043.69
2024-01-30T00:57:46.949Z,101045.41
2024-01-30T01:00:17.172Z,101044.41
2024-01-30T01:02:44.999Z,101049.56
2024-01-30T01:05:12.071Z,101048.75
2024-01-30T01:07:39.145Z,101053.06
2024-01-30T01:10:06.641Z,101044.41
2024-01-30T01:12:33.801Z,101050.31
2024-01-30T01:15:00.804Z,101047.66
2024-01-30T01:17:28.409Z,101048.44
2024-01-30T01:19:55.548Z,101038.94
2024-01-30T01:22:22.659Z,101047.56
2024-01-30T01:24:49.997Z,101027.13
2024-01-30T01:27:17.395Z,101022.81
2024-01-30T01:29:44.486Z,101033.06
2024-01-30T01:32:11.557Z,101028.69
2024-01-30T01:34:38.740Z,101036.28
2024-01-30T01:37:06.219Z,101032.81
2024-01-30T01:39:33.459Z,101018.84
2024-01-30T01:42:00.666Z,101029.88
2024-01-30T01:44:28.510Z,101021.19
2024-01-30T01:46:56.353Z,101015.03
2024-01-30T01:49:26.556Z,101017.66
2024-01-30T01:51:58.202Z,101013.25
2024-01-30T01:54:28.280Z,101012.44
2024-01-30T01:56:55.795Z,101014.25
2024-01-30T01:59:25.093Z,101028.75
2024-01-30T02:01:54.617Z,101013.25
2024-01-30T02:04:21.949Z,101013.13
2024-01-30T02:06:49.425Z,101018.25
2024-01-30T02:09:17.072Z,101008.72
2024-01-30T02:11:44.282Z,101006.25
2024-01-30T02:14:11.360Z,101017.34
2024-01-30T02:16:38.468Z,101010.56
2024-01-30T02:19:06.651Z,101017.34
2024-01-30T02:21:37.866Z,101012.06
2024-01-30T02:24:06.166Z,101005.47
2024-01-30T02:26:33.769Z,101017.47
2024-01-30T02:29:01.167Z,101005.31
2024-01-30T02:31:28.382Z,101015.66
2024-01-30T02:33:55.579Z,101013.06
2024-01-30T02:36:22.768Z,101008.84
2024-01-30T02:38:50.007Z,100984.41
2024-01-30T02:41:16.980Z,101001.84
2024-01-30T02:43:44.259Z,101019.03
2024-01-30T02:46:11.300Z,101013.75
2024-01-30T02:48:40.467Z,101007.59
2024-01-30T02:51:07.587Z,101009.34
2024-01-30T02:53:34.707Z,101004.13
2024-01-30T02:56:03.182Z,100993.09
2024-01-30T02:58:30.253Z,100997.97
2024-01-30T03:00:57.461Z,101012.63
2024-01-30T03:03:24.620Z,101004.94
2024-01-30T03:05:51.711Z,101013.69
2024-01-30T03:08:18.828Z,101022.25
2024-01-30T03:10:46.060Z,101020.44
2024-01-30T03:13:13.327Z,101024.66
2024-01-30T03:15:40.799Z,101023.66
2024-01-30T03:18:08.091Z,101009.97
2024-01-30T03:20:35.135Z,101011.53
2024-01-30T03:23:02.411Z,101020.19
2024-01-30T03:25:29.545Z,101033.03
2024-01-30T03:27:57.043Z,101033.94
2024-01-30T03:30:24.582Z,101032.22
2024-01-30T03:32:51.899Z,101037.38
2024-01-30T03:35:20.405Z,101032.22
2024-01-30T03:37:47.464Z,101022.56
2024-01-30T03:40:14.757Z,101012.94
2024-01-30T03:42:41.952Z,101009.47
2024-01-30T03:45:09.678Z,101017.97
2024-01-30T03:47:36.844Z,101029.13
2024-01-30T03:50:06.132Z,101028.88
2024-01-30T03:52:33.170Z,101037.50
2024-01-30T03:55:00.344Z,101041.88
2024-01-30T03:57:27.499Z,101040.22
2024-01-30T03:59:54.677Z,101035.81
2024-01-30T04:02:22.081Z,101038.41
2024-01-30T04:04:49.240Z,101048.59
2024-01-30T04:07:16.575Z,101041.75
2024-01-30T04:09:43.986Z,101050.28
2024-01-30T04:12:11.192Z,101036.56
2024-01-30T04:14:40.659Z,101043.44
2024-01-30T04:17:07.572Z,101039.94
2024-01-30T04:19:39.463Z,101043.31
2024-01-30T04:22:06.527Z,101037.19
2024-01-30T04:24:33.693Z,101041.34
2024-01-30T04:27:00.624Z,101047.38
2024-01-30T04:29:27.610Z,101041.22
2024-01-30T04:31:54.676Z,101033.66
2024-01-30T04:34:21.879Z,101043.75
2024-01-30T04:36:49.001Z,101032.69
2024-01-30T04:39:16.108Z,101034.25
2024-01-30T04:41:43.115Z,101038.38
2024-01-30T04:44:10.160Z,101030.63
2024-01-30T04:46:37.142Z,101034.81
2024-01-30T04:49:04.872Z,101041.72
2024-01-30T04:51:31.973Z,101040.00
2024-01-30T04:53:58.934Z,101037.41
2024-01-30T04:56:25.962Z,101030.69
2024-01-30T04:58:53.242Z,101034.75
2024-01-30T05:01:20.357Z,101039.88
2024-01-30T05:03:47.368Z,101036.34
2024-01-30T05:06:14.472Z,101044.97
2024-01-30T05:08:41.510Z,101042.94
2024-01-30T05:11:08.651Z,101034.44
2024-01-30T05:13:35.687Z,101037.69
2024-01-30T05:16:04.972Z,101045.13
2024-01-30T05:18:32.090Z,101031.47
2024-01-30T05:20:59.280Z,101033.16
2024-01-30T05:23:26.361Z,101031.41
2024-01-30T05:25:53.475Z,101038.13
2024-01-30T05:28:20.516Z,101051.00
2024-01-30T05:30:47.716Z,101051.00
2024-01-30T05:33:15.025Z,101049.97
2024-01-30T05:35:42.008Z,101045.06
2024-01-30T05:38:09.085Z,101031.34
2024-01-30T05:40:36.150Z,101045.19
2024-01-30T05:43:04.090Z,101037.38
2024-01-30T05:45:31.372Z,101040.56
2024-01-30T05:47:58.539Z,101041.59
2024-01-30T05:50:26.724Z,101036.25
2024-01-30T05:52:54.063Z,101051.75
2024-01-30T05:55:21.088Z,101062.81
2024-01-30T05:57:48.187Z,101055.06
2024-01-30T06:00:15.911Z,101054.28
2024-01-30T06:02:42.898Z,101061.06
2024-01-30T06:05:10.222Z,101061.97
2024-01-30T06:07:37.689Z,101059.44
2024-01-30T06:10:05.375Z,101065.63
2024-01-30T06:12:32.417Z,101062.03
2024-01-30T06:14:59.627Z,101063.66
2024-01-30T06:17:26.577Z,101065.22
2024-01-30T06:19:53.557Z,101068.69
2024-01-30T06:22:21.121Z,101067.63
2024-01-30T06:24:49.965Z,101076.13
2024-01-30T06:27:17.098Z,101068.00
2024-01-30T06:29:44.796Z,101072.19
2024-01-30T06:32:12.042Z,101070.53
2024-01-30T06:34:40.154Z,101064.63
2024-01-30T06:37:07.498Z,101076.53
2024-01-30T06:39:34.507Z,101080.59
2024-01-30T06:42:01.783Z,101077.91
2024-01-30T06:44:32.214Z,101080.28
2024-01-30T06:47:00.540Z,101083.81
2024-01-30T06:49:27.649Z,101083.66
2024-01-30T06:51:54.743Z,101081.84
2024-01-30T06:54:21.724Z,101096.13
2024-01-30T06:56:48.719Z,101094.56
2024-01-30T06:59:15.747Z,101084.28
2024-01-30T07:01:42.786Z,101081.84
2024-01-30T07:04:09.910Z,101081.34
2024-01-30T07:06:37.016Z,101088.72
2024-01-30T07:09:04.689Z,101094.56
2024-01-30T07:11:31.880Z,101104.66
2024-01-30T07:13:58.957Z,101114.72
2024-01-30T07:16:26.155Z,101113.66
2024-01-30T07:18:53.439Z,101117.78
2024-01-30T07:21:22.998Z,101109.88
2024-01-30T07:23:50.659Z,101115.81
2024-01-30T07:26:17.860Z,101107.16
2024-01-30T07:28:45.260Z,101112.03
2024-01-30T07:31:12.493Z,101107.41
2024-01-30T07:33:39.610Z,101097.41
2024-01-30T07:36:07.130Z,101115.03
2024-01-30T07:38:34.285Z,101122.44
2024-01-30T07:41:01.397Z,101117.59
2024-01-30T07:43:28.548Z,101115.63
2024-01-30T07:45:55.796Z,101121.31
2024-01-30T07:48:22.907Z,101122.72
2024-01-30T07:50:50.087Z,101124.34
2024-01-30T07:53:17.142Z,101122.50
2024-01-30T07:55:48.089Z,101128.44
2024-01-30T07:58:15.402Z,101112.22
2024-01-30T08:00:44.220Z,101124.78
2024-01-30T08:03:11.339Z,101126.72
2024-01-30T08:05:40.593Z,101124.41
2024-01-30T08:08:07.890Z,101119.91
2024-01-30T08:10:35.182Z,101116.94
2024-01-30T08:13:03.131Z,101107.78
2024-01-30T08:15:30.353Z,101116.28
2024-01-30T08:17:59.217Z,101112.88
2024-01-30T08:20:26.839Z,101101.16
2024-01-30T08:22:54.296Z,101119.16
2024-01-30T08:25:21.515Z,101117.63
2024-01-30T08:27:48.695Z,101105.91
2024-01-30T08:30:15.988Z,101105.72
2024-01-30T08:32:43.088Z,101122.81
2024-01-30T08:35:10.444Z,101118.38
2024-01-30T08:37:38.025Z,101113.81
2024-01-30T08:40:06.105Z,101110.28
2024-01-30T08:42:34.451Z,101117.16
2024-01-30T08:45:01.820Z,101107.31
2024-01-30T08:47:31.602Z,101107.53
2024-01-30T08:49:58.892Z,101103.72
2024-01-30T08:52:26.674Z,101110.97
2024-01-30T08:54:53.704Z,101107.13
2024-01-30T08:57:20.940Z,101098.34
2024-01-30T08:59:48.011Z,101114.44
2024-01-30T09:02:17.612Z,101119.84
2024-01-30T09:04:45.063Z,101110.56
2024-01-30T09:07:12.559Z,101111.63
2024-01-30T09:09:42.064Z,101115.75
2024-01-30T09:12:10.920Z,101113.16
2024-01-30T09:14:39.104Z,101115.84
2024-01-30T09:17:06.205Z,101116.81
2024-01-30T09:19:33.848Z,101111.63
2024-01-30T09:22:01.377Z,101108.88
2024-01-30T09:24:28.993Z,101115.50
2024-01-30T09:26:56.634Z,101113.16
2024-01-30T09:29:23.757Z,101120.31
2024-01-30T09:31:50.853Z,101116.47
2024-01-30T09:34:18.089Z,101103.56
2024-01-30T09:36:45.541Z,101100.59
2024-01-30T09:39:12.595Z,101104.75
2024-01-30T09:42:18.743Z,101115.06
2024-01-30T09:44:48.184Z,101102.25
2024-01-30T09:47:17.783Z,101107.13
2024-01-30T09:49:45.715Z,101102.00
2024-01-30T09:52:13.163Z,101103.63
2024-01-30T09:54:41.138Z,101097.69
2024-01-30T09:57:09.018Z,101091.63
2024-01-30T09:59:36.155Z,101101.84
2024-01-30T10:02:05.532Z,101102.78
2024-01-30T10:04:33.089Z,101106.59
2024-01-30T10:07:03.516Z,101104.31
2024-01-30T10:09:34.052Z,101097.72
2024-01-30T10:12:01.078Z,101103.06
2024-01-30T10:14:28.110Z,101097.72
2024-01-30T10:16:55.133Z,101095.72
2024-01-30T10:19:22.478Z,101091.78
2024-01-30T10:21:49.666Z,101088.72
2024-01-30T10:24:18.118Z,101094.84
2024-01-30T10:26:45.526Z,101094.38
2024-01-30T10:29:12.610Z,101092.34
2024-01-30T10:31:39.915Z,101096.28
2024-01-30T10:34:12.538Z,101096.19
2024-01-30T10:36:51.364Z,101090.75
2024-01-30T10:39:19.222Z,101101.31
2024-01-30T10:41:49.908Z,101104.97
2024-01-30T10:44:21.409Z,101091.41
2024-01-30T10:46:57.013Z,101094.31
2024-01-30T10:49:25.764Z,101094.38
2024-01-30T10:51:54.170Z,101106.09
2024-01-30T10:54:21.692Z,101092.06
2024-01-30T10:56:49.979Z,101099.75
2024-01-30T10:59:17.469Z,101080.34
2024-01-30T11:01:45.152Z,101085.22
2024-01-30T11:04:12.619Z,101087.81
2024-01-30T11:06:44.001Z,101081.53
2024-01-30T11:09:14.302Z,101093.78
2024-01-30T11:12:01.944Z,101088.38
2024-01-30T11:14:31.613Z,101096.75
2024-01-30T11:17:02.550Z,101101.47
2024-01-30T11:19:34.765Z,101103.81
2024-01-30T11:22:02.148Z,101101.81
2024-01-30T11:24:29.231Z,101106.16
2024-01-30T11:27:00.660Z,101098.63
2024-01-30T11:29:29.675Z,101101.13
2024-01-30T11:31:58.285Z,101094.97
2024-01-30T11:34:26.013Z,101091.25
2024-01-30T11:37:14.582Z,101103.56
2024-01-30T11:39:44.244Z,101111.28
2024-01-30T11:42:12.464Z,101110.84
2024-01-30T11:44:39.542Z,101117.25
2024-01-30T11:47:06.819Z,101123.38
2024-01-30T11:49:34.017Z,101120.00
2024-01-30T11:52:01.162Z,101123.63
2024-01-30T11:54:28.386Z,101129.03
2024-01-30T11:56:55.880Z,101133.38
2024-01-30T11:59:22.890Z,101141.94
2024-01-30T12:01:50.276Z,101138.63
2024-01-30T12:04:17.609Z,101137.06
2024-01-30T12:06:44.838Z,101136.81
2024-01-30T12:09:14.539Z,101132.47
2024-01-30T12:11:53.738Z,101147.03
2024-01-30T12:14:21.451Z,101138.72
2024-01-30T12:16:52.289Z,101143.38
2024-01-30T12:19:26.627Z,101143.38
2024-01-30T12:22:00.849Z,101153.75
2024-01-30T12:24:29.341Z,101144.84
2024-01-30T12:27:00.091Z,101142.41
2024-01-30T12:29:30.719Z,101141.03
2024-01-30T12:32:01.398Z,101125.16
2024-01-30T12:34:28.920Z,101140.78
2024-01-30T12:36:57.169Z,101139.03
2024-01-30T12:39:24.606Z,101143.38
2024-01-30T12:41:52.858Z,101133.75
2024-01-30T12:44:20.081Z,101135.44
2024-01-30T12:46:49.071Z,101134.03
2024-01-30T12:49:16.163Z,101146.22
2024-01-30T12:51:43.265Z,101145.06
2024-01-30T12:54:10.476Z,101139.28
2024-01-30T12:56:37.438Z,101146.91
2024-01-30T12:59:04.467Z,101147.00
2024-01-30T13:01:31.754Z,101152.09
2024-01-30T13:03:59.993Z,101146.72
2024-01-30T13:06:27.297Z,101151.75
2024-01-30T13:08:54.539Z,101160.47
2024-01-30T13:11:22.084Z,101165.97
2024-01-30T13:13:49.520Z,101160.34
2024-01-30T13:16:16.644Z,101174.13
2024-01-30T13:18:43.736Z,101167.34
2024-01-30T13:21:11.016Z,101159.84
2024-01-30T13:23:38.035Z,101152.16
2024-01-30T13:26:05.404Z,101161.69
2024-01-30T13:28:32.521Z,101164.06
2024-01-30T13:30:59.681Z,101162.59
2024-01-30T13:33:27.569Z,101163.84
2024-01-30T13:35:54.677Z,101156.81
2024-01-30T13:38:21.680Z,101164.06
2024-01-30T13:40:48.729Z,101164.75
2024-01-30T13:43:16.082Z,101162.31
2024-01-30T13:45:43.677Z,101164.88
2024-01-30T13:48:10.711Z,101164.88
2024-01-30T13:50:37.716Z,101165.81
2024-01-30T13:53:05.939Z,101158.19
2024-01-30T13:55:33.317Z,101161.41
2024-01-30T13:58:00.760Z,101147.38
2024-01-30T14:00:27.831Z,101168.13
2024-01-30T14:02:59.443Z,101160.19
2024-01-30T14:05:27.516Z,101167.75
2024-01-30T14:07:55.224Z,101178.72
2024-01-30T14:10:22.289Z,101175.25
2024-01-30T14:12:49.529Z,101172.66
2024-01-30T14:15:27.324Z,101179.84
2024-01-30T14:17:56.936Z,101187.78
2024-01-30T14:20:24.540Z,101182.66
2024-01-30T14:22:52.880Z,101189.00
2024-01-30T14:25:20.872Z,101185.78
2024-01-30T14:27:48.337Z,101190.75
2024-01-30T14:30:15.365Z,101193.56
2024-01-30T14:32:43.940Z,101192.81
2024-01-30T14:35:11.648Z,101196.22
2024-01-30T14:37:39.303Z,101198.16
2024-01-30T14:40:08.870Z,101195.84
2024-01-30T14:42:37.308Z,101195.16
2024-01-30T14:45:08.838Z,101199.88
2024-01-30T14:47:37.283Z,101206.19
2024-01-30T14:50:08.729Z,101196.69
2024-01-30T14:52:38.774Z,101200.84
2024-01-30T14:55:06.760Z,101188.03
2024-01-30T14:57:36.249Z,101197.38
2024-01-30T15:00:04.054Z,101189.75
2024-01-30T15:02:33.015Z,101199.97
2024-01-30T15:05:01.009Z,101209.50
2024-01-30T15:07:39.045Z,101198.19
2024-01-30T15:10:11.884Z,101205.91
2024-01-30T15:12:39.603Z,101201.72
2024-01-30T15:15:10.026Z,101202.56
2024-01-30T15:17:37.389Z,101210.31
2024-01-30T15:20:05.505Z,101208.78
2024-01-30T15:22:33.185Z,101212.59
2024-01-30T15:25:00.573Z,101207.63
2024-01-30T15:27:30.269Z,101221.41
2024-01-30T15:29:58.009Z,101225.69
2024-01-30T15:32:26.383Z,101226.53
2024-01-30T15:34:54.667Z,101236.06
2024-01-30T15:37:23.001Z,101236.88
2024-01-30T15:39:50.195Z,101238.28
2024-01-30T15:42:17.437Z,101238.84
2024-01-30T15:44:44.580Z,101237.16
2024-01-30T15:47:12.112Z,101239.66
2024-01-30T15:49:39.322Z,101235.25
2024-01-30T15:52:06.817Z,101236.66
2024-01-30T15:54:33.943Z,101245.38
2024-01-30T15:57:00.990Z,101244.56
2024-01-30T15:59:28.482Z,101251.44
2024-01-30T16:01:55.615Z,101238.84
2024-01-30T16:04:25.080Z,101246.47
2024-01-30T16:06:52.355Z,101251.50
2024-01-30T16:09:19.463Z,101247.84
2024-01-30T16:11:46.505Z,101245.19
2024-01-30T16:14:13.885Z,101248.78
2024-01-30T16:16:40.971Z,101257.59
2024-01-30T16:19:08.237Z,101253.38
2024-01-30T16:21:35.363Z,101248.28
2024-01-30T16:24:02.517Z,101255.06
2024-01-30T16:26:29.568Z,101242.19
2024-01-30T16:28:56.637Z,101252.56
2024-01-30T16:31:23.799Z,101242.94
2024-01-30T16:33:51.088Z,101252.47
2024-01-30T16:36:18.306Z,101251.09
2024-01-30T16:38:45.471Z,101250.25
2024-01-30T16:41:12.836Z,101251.19
2024-01-30T16:43:40.104Z,101248.66
2024-01-30T16:46:07.369Z,101254.66
2024-01-30T16:48:34.742Z,101237.72
2024-01-30T16:51:02.103Z,101251.03
2024-01-30T16:53:30.136Z,101244.16
2024-01-30T16:55:57.199Z,101253.38
2024-01-30T16:58:24.481Z,101252.28
2024-01-30T17:00:52.136Z,101241.44
2024-01-30T17:03:19.312Z,101250.44
2024-01-30T17:05:46.540Z,101253.09
2024-01-30T17:08:13.930Z,101253.97
2024-01-30T17:10:41.334Z,101256.41
2024-01-30T17:13:08.474Z,101245.25
2024-01-30T17:15:36.158Z,101251.06
2024-01-30T17:18:03.396Z,101245.09
2024-01-30T17:20:30.765Z,101255.19
2024-01-30T17:22:57.986Z,101253.66
2024-01-30T17:25:25.168Z,101255.47
2024-01-30T17:27:52.891Z,101257.31
2024-01-30T17:30:23.246Z,101250.50
2024-01-30T17:32:54.012Z,101246.25
2024-01-30T17:35:21.603Z,101257.31
2024-01-30T17:37:48.792Z,101260.13
2024-01-30T17:40:16.021Z,101262.78
2024-01-30T17:42:43.250Z,101267.81
2024-01-30T17:45:11.065Z,101263.53
2024-01-30T17:47:39.094Z,101257.75
2024-01-30T17:50:06.763Z,101261.16
2024-01-30T17:52:34.043Z,101262.03
2024-01-30T17:55:01.239Z,101256.03
2024-01-30T17:57:30.790Z,101258.63
2024-01-30T17:59:58.665Z,101259.72
2024-01-30T18:02:26.649Z,101259.84
2024-01-30T18:04:53.817Z,101259.09
2024-01-30T18:07:21.921Z,101255.72
2024-01-30T18:09:49.105Z,101246.56
2024-01-30T18:12:16.227Z,101256.66
2024-01-30T18:14:43.367Z,101252.38
2024-01-30T18:17:10.426Z,101255.03
2024-01-30T18:19:37.782Z,101255.94
2024-01-30T18:22:05.008Z,101251.75
2024-01-30T18:24:32.103Z,101251.81
2024-01-30T18:26:59.276Z,101252.72
2024-01-30T18:29:27.588Z,101245.78
2024-01-30T18:31:54.783Z,101250.06
2024-01-30T18:34:22.071Z,101255.22
2024-01-30T18:36:49.283Z,101257.06
2024-01-30T18:39:16.464Z,101257.97
2024-01-30T18:41:43.764Z,101257.22
2024-01-30T18:44:10.860Z,101262.38
2024-01-30T18:46:38.383Z,101253.84
2024-01-30T18:49:05.905Z,101254.00
2024-01-30T18:51:33.089Z,101254.28
2024-01-30T18:54:00.980Z,101248.38
2024-01-30T18:56:27.986Z,101241.53
2024-01-30T18:58:55.207Z,101249.44
2024-01-30T19:01:22.442Z,101246.97
2024-01-30T19:03:49.629Z,101252.22
2024-01-30T19:06:17.080Z,101244.75
2024-01-30T19:08:44.159Z,101243.97
2024-01-30T19:11:21.676Z,101238.94
2024-01-30T19:13:49.067Z,101241.66
2024-01-30T19:16:16.142Z,101239.13
2024-01-30T19:18:44.172Z,101234.22
2024-01-30T19:21:11.287Z,101243.88
2024-01-30T19:23:38.490Z,101235.53
2024-01-30T19:26:05.922Z,101244.28
2024-01-30T19:28:33.182Z,101246.81
2024-01-30T19:31:02.114Z,101250.16
2024-01-30T19:33:29.445Z,101240.50
2024-01-30T19:35:56.508Z,101245.06
2024-01-30T19:38:26.023Z,101231.88
2024-01-30T19:40:55.973Z,101238.88
2024-01-30T19:43:23.136Z,101253.47
2024-01-30T19:45:50.582Z,101255.28
2024-01-30T19:48:17.742Z,101253.59
2024-01-30T19:50:45.008Z,101255.16
2024-01-30T19:53:12.130Z,101248.16
2024-01-30T19:55:39.223Z,101249.84
2024-01-30T19:58:06.507Z,101252.31
2024-01-30T20:00:33.774Z,101247.13
2024-01-30T20:03:01.369Z,101250.00
2024-01-30T20:05:28.700Z,101250.94
2024-01-30T20:07:56.040Z,101246.63
2024-01-30T20:10:23.302Z,101240.59
2024-01-30T20:12:54.912Z,101236.16
2024-01-30T20:15:23.501Z,101240.72
2024-01-30T20:17:50.530Z,101239.06
2024-01-30T20:20:18.276Z,101236.41
2024-01-30T20:22:47.297Z,101235.75
2024-01-30T20:25:19.132Z,101216.63
2024-01-30T20:27:48.620Z,101233.72
2024-01-30T20:30:17.826Z,101234.53
2024-01-30T20:32:45.167Z,101237.97
2024-01-30T20:35:12.373Z,101242.09
2024-01-30T20:37:39.995Z,101247.16
2024-01-30T20:40:07.967Z,101247.84
2024-01-30T20:42:35.380Z,101237.38
2024-01-30T20:45:05.849Z,101239.06
2024-01-30T20:47:34.299Z,101230.38
2024-01-30T20:50:01.504Z,101235.56
2024-01-30T20:52:31.203Z,101239.19
2024-01-30T20:54:58.331Z,101234.22
2024-01-30T20:57:25.374Z,101236.75
2024-01-30T20:59:52.444Z,101229.94
2024-01-30T21:02:19.490Z,101243.81
2024-01-30T21:05:06.102Z,101243.06
2024-01-30T21:07:33.437Z,101239.00
2024-01-30T21:10:00.597Z,101236.81
2024-01-30T21:12:29.321Z,101228.34
2024-01-30T21:14:56.480Z,101224.91
2024-01-30T21:17:23.488Z,101230.75
2024-01-30T21:19:50.646Z,101234.09
2024-01-30T21:22:18.072Z,101228.66
2024-01-30T21:24:45.477Z,101224.13
2024-01-30T21:27:13.213Z,101229.03
2024-01-30T21:29:42.638Z,101228.00
2024-01-30T21:32:10.163Z,101226.19
2024-01-30T21:34:37.350Z,101233.91
2024-01-30T21:37:04.667Z,101235.69
2024-01-30T21:39:31.825Z,101231.50
2024-01-30T21:41:59.375Z,101227.16
2024-01-30T21:44:29.225Z,101227.16
2024-01-30T21:46:57.891Z,101222.81
2024-01-30T21:49:25.210Z,101224.50
2024-01-30T21:51:53.011Z,101215.97
2024-01-30T21:54:20.132Z,101209.13
2024-01-30T21:56:47.359Z,101214.91
2024-01-30T21:59:14.655Z,101204.50
2024-01-30T22:01:41.715Z,101213.13
2024-01-30T22:04:08.999Z,101207.16
2024-01-30T22:06:36.433Z,101201.97
2024-01-30T22:09:03.728Z,101196.81
2024-01-30T22:11:30.822Z,101195.84
2024-01-30T22:13:58.076Z,101194.09
2024-01-30T22:16:25.139Z,101192.22
2024-01-30T22:18:52.258Z,101193.19
2024-01-30T22:21:19.432Z,101189.69
2024-01-30T22:23:47.441Z,101183.81
2024-01-30T22:26:14.616Z,101181.28
2024-01-30T22:28:41.693Z,101186.47
2024-01-30T22:31:09.324Z,101188.16
2024-01-30T22:33:36.436Z,101175.97
2024-01-30T22:36:03.701Z,101174.19
2024-01-30T22:38:31.050Z,101169.06
2024-01-30T22:40:59.497Z,101177.66
2024-01-30T22:43:27.491Z,101172.75
2024-01-30T22:45:54.670Z,101163.72
2024-01-30T22:48:21.699Z,101167.53
2024-01-30T22:50:48.785Z,101162.50
2024-01-30T22:53:15.799Z,101160.91
2024-01-30T22:55:43.621Z,101156.75
2024-01-30T22:58:10.759Z,101159.97
2024-01-30T23:00:38.752Z,101164.25
2024-01-30T23:03:05.916Z,101166.84
2024-01-30T23:05:34.491Z,101161.66
2024-01-30T23:08:01.570Z,101158.16
2024-01-30T23:10:28.650Z,101153.84
2024-01-30T23:12:55.853Z,101152.09
2024-01-30T23:15:23.554Z,101148.75
2024-01-30T23:17:51.163Z,101148.94
2024-01-30T23:20:18.662Z,101146.53
2024-01-30T23:22:45.744Z,101148.38
2024-01-30T23:25:12.778Z,101144.97
2024-01-30T23:27:40.121Z,101142.47
2024-01-30T23:30:08.117Z,101143.47
2024-01-30T23:32:41.796Z,101151.16
2024-01-30T23:35:10.640Z,101148.88
2024-01-30T23:37:39.843Z,101150.09
2024-01-30T23:40:16.520Z,101142.41
2024-01-30T23:42:45.394Z,101146.31
2024-01-30T23:45:12.531Z,101151.16
2024-01-30T23:47:39.934Z,101152.53
2024-01-30T23:50:07.564Z,101152.41
2024-01-30T23:52:35.217Z,101153.28
2024-01-30T23:55:02.668Z,101162.69
2024-01-30T23:57:31.059Z,101152.47
2024-01-30T23:59:58.147Z,101166.22
